Aviation Digital Data Service (ADDS)

Output produced by METARs form (1708 UTC 21 September 2019)
found at http://aviationweather.gov/metar/data/
 
METAR text: KDKB 211655Z AUTO 20010KT 10SM TSRA SCT013 BKN027 OVC033 22/22 A3009 RMK AO2 LTG DSNT N AND NW P0005 T02200219
Conditions at: KDKB (DE KALB , IL, US) observed 1655 UTC 21 September 2019
Temperature: 22.0°C (72°F)
Dewpoint: 21.9°C (71°F) [RH = 99%]
Pressure (altimeter): 30.09 inches Hg (1019.0 mb)
Winds: from the SSW (200 degrees) at 12 MPH (10 knots; 5.1 m/s)
Visibility: 10 or more miles (16+ km)
Ceiling: 2700 feet AGL
Clouds: scattered clouds at 1300 feet AGL
broken clouds at 2700 feet AGL
overcast cloud deck at 3300 feet AGL
Weather: TSRA  (rain associated with thunderstorm(s))